Time;durP1;ratioP1;P1;durP2;ratioP2;P2;SDS_P1;SDS_P2;PMS_P1;PMS_P2;Temp;Humidity;BMP_temperature;BMP_pressure;BME280_temperature;BME280_humidity;BME280_pressure;Samples;Min_cycle;Max_cycle;Signal;HPM_P1;HPM_P2
2022/02/17 00:00:24;;;;;;;1.58;0.55;;;;;;;17.09;55.06;99015.66;5009452;28;20568;-74
2022/02/17 00:02:51;;;;;;;1.50;0.47;;;;;;;17.07;55.32;99009.50;5010863;28;20137;-74
2022/02/17 00:05:17;;;;;;;2.08;0.55;;;;;;;17.06;54.87;98991.31;5009295;28;20136;-74
2022/02/17 00:07:43;;;;;;;0.95;0.50;;;;;;;17.05;54.93;98991.50;5010660;28;20128;-75
2022/02/17 00:10:10;;;;;;;1.65;0.60;;;;;;;17.07;54.93;98989.44;5009088;28;20041;-74
2022/02/17 00:12:37;;;;;;;0.85;0.43;;;;;;;17.02;54.78;98981.78;5015924;28;20461;-74
2022/02/17 00:15:04;;;;;;;1.58;0.60;;;;;;;17.04;54.63;98981.63;5007981;28;20513;-74
2022/02/17 00:17:31;;;;;;;1.63;0.70;;;;;;;17.05;54.37;98972.31;5010700;28;20120;-74
2022/02/17 00:19:58;;;;;;;2.17;0.75;;;;;;;17.02;54.77;98992.75;5009310;28;20057;-74
2022/02/17 00:22:25;;;;;;;1.13;0.60;;;;;;;17.02;54.44;98978.19;5010304;28;20053;-75
2022/02/17 00:24:52;;;;;;;2.10;0.70;;;;;;;16.99;54.46;98962.97;5007838;28;20137;-75
2022/02/17 00:27:19;;;;;;;2.63;0.50;;;;;;;16.99;54.57;98965.72;5009938;28;20125;-75
2022/02/17 00:29:46;;;;;;;0.85;0.45;;;;;;;17.01;54.82;98946.34;5008385;28;20133;-74
2022/02/17 00:32:12;;;;;;;1.13;0.52;;;;;;;16.99;54.46;98948.41;5009959;28;20125;-74
2022/02/17 00:34:39;;;;;;;1.45;0.60;;;;;;;16.97;54.78;98951.34;5007719;28;20073;-75
2022/02/17 00:37:06;;;;;;;1.25;0.50;;;;;;;16.97;54.94;98958.72;5009553;28;20137;-74
2022/02/17 00:39:35;;;;;;;1.98;0.80;;;;;;;16.97;54.40;98976.00;5016439;28;20046;-75
2022/02/17 00:42:03;;;;;;;2.35;0.70;;;;;;;16.99;54.79;98953.91;5009268;28;20469;-75
2022/02/17 00:44:30;;;;;;;1.85;0.70;;;;;;;17.00;54.30;98933.66;5008963;28;20066;-75
2022/02/17 00:46:57;;;;;;;1.60;0.60;;;;;;;16.97;54.71;98964.19;5008588;28;20053;-75
2022/02/17 00:49:26;;;;;;;2.35;0.70;;;;;;;16.96;54.35;98963.38;5008196;28;20097;-75
2022/02/17 00:51:53;;;;;;;1.80;0.80;;;;;;;16.97;54.65;98956.81;5009687;28;20104;-75
2022/02/17 00:54:23;;;;;;;2.45;0.93;;;;;;;17.00;54.03;98950.97;5008194;28;20046;-75
2022/02/17 00:56:50;;;;;;;2.75;0.75;;;;;;;16.97;54.35;98950.47;5007339;28;20572;-74
2022/02/17 00:59:17;;;;;;;2.00;0.65;;;;;;;16.95;53.72;98958.06;5008527;28;20130;-75
2022/02/17 01:01:47;;;;;;;2.97;0.70;;;;;;;16.96;54.26;98963.38;5010327;28;20227;-74
2022/02/17 01:04:15;;;;;;;1.15;0.60;;;;;;;16.96;54.15;98960.63;5008555;28;20049;-75
2022/02/17 01:06:43;;;;;;;2.22;0.70;;;;;;;16.96;54.22;98925.00;5009056;28;20073;-74
2022/02/17 01:09:11;;;;;;;1.70;0.68;;;;;;;16.93;53.87;98949.19;5007755;28;20188;-75
2022/02/17 01:11:38;;;;;;;2.25;1.05;;;;;;;16.91;53.99;98927.44;5008225;28;20557;-74
2022/02/17 01:14:06;;;;;;;1.70;0.70;;;;;;;16.90;54.18;98942.19;5009547;28;20076;-74
2022/02/17 01:16:34;;;;;;;2.47;0.80;;;;;;;16.84;54.16;98953.06;5007538;28;20081;-74
2022/02/17 01:19:00;;;;;;;3.20;1.00;;;;;;;16.83;54.04;98954.94;5008099;28;20136;-75
2022/02/17 01:21:30;;;;;;;2.67;1.00;;;;;;;16.80;53.84;98936.13;5005275;28;20149;-74
2022/02/17 01:23:56;;;;;;;3.17;0.90;;;;;;;16.77;53.60;98963.94;5008494;28;20045;-75
2022/02/17 01:26:23;;;;;;;3.58;1.23;;;;;;;16.71;53.34;98965.53;5007614;28;20564;-75
2022/02/17 01:28:49;;;;;;;3.05;0.93;;;;;;;16.65;53.50;98982.72;5007323;28;20136;-75
2022/02/17 01:31:18;;;;;;;2.15;0.70;;;;;;;16.62;53.94;98972.13;5008660;28;20104;-75
2022/02/17 01:33:45;;;;;;;4.15;1.17;;;;;;;16.62;53.59;98976.75;5010236;28;20543;-75
2022/02/17 01:36:14;;;;;;;3.13;1.10;;;;;;;16.58;53.72;98991.81;5013526;28;20057;-74
2022/02/17 01:38:44;;;;;;;2.47;0.80;;;;;;;16.54;53.67;98994.09;5013926;28;20133;-74
2022/02/17 01:41:13;;;;;;;2.70;0.80;;;;;;;16.54;53.51;98991.38;5014967;28;20120;-74
2022/02/17 01:43:40;;;;;;;2.58;0.70;;;;;;;16.50;53.80;98991.91;5014984;28;20128;-75
2022/02/17 01:46:07;;;;;;;3.50;0.90;;;;;;;16.48;53.57;98999.44;5012153;28;20077;-74
2022/02/17 01:48:36;;;;;;;2.60;0.95;;;;;;;16.47;53.76;99015.03;5015846;28;20060;-75
2022/02/17 01:51:04;;;;;;;2.95;0.80;;;;;;;16.43;53.83;99018.34;5017383;28;20077;-74
2022/02/17 01:53:30;;;;;;;2.97;1.00;;;;;;;16.41;53.99;99020.41;5022413;28;20070;-74
2022/02/17 01:55:58;;;;;;;2.85;1.00;;;;;;;16.38;53.98;99027.13;5013148;28;20493;-74
2022/02/17 01:58:27;;;;;;;2.97;0.80;;;;;;;16.35;53.57;98992.72;5016206;28;20077;-74
2022/02/17 02:00:54;;;;;;;3.10;0.88;;;;;;;16.35;54.00;99017.38;5014262;28;20140;-74
2022/02/17 02:03:23;;;;;;;3.42;0.95;;;;;;;16.34;53.81;99031.25;5015691;28;20056;-74
2022/02/17 02:05:50;;;;;;;3.67;1.17;;;;;;;16.28;54.20;99054.75;5013303;28;20050;-74
2022/02/17 02:08:17;;;;;;;3.33;1.10;;;;;;;16.26;54.03;99050.47;5014710;28;20132;-74
2022/02/17 02:10:44;;;;;;;3.10;1.08;;;;;;;16.25;53.89;99066.06;5013761;28;20108;-74
2022/02/17 02:13:11;;;;;;;2.58;1.05;;;;;;;16.23;53.50;99064.53;5015677;28;20046;-74
2022/02/17 02:15:49;;;;;;;5.32;1.58;;;;;;;16.23;53.98;99070.00;5012422;28;20058;-73
2022/02/17 02:18:17;;;;;;;4.43;1.23;;;;;;;16.19;53.92;99096.91;5006877;28;20089;-74
2022/02/17 02:21:23;;;;;;;4.72;1.48;;;;;;;16.16;53.75;99072.63;5012241;28;20046;-74
2022/02/17 02:23:49;;;;;;;6.65;1.50;;;;;;;16.11;53.31;99082.44;5014407;28;20560;-73
2022/02/17 02:26:16;;;;;;;3.58;1.30;;;;;;;16.06;53.90;99088.44;5013430;28;20140;-73
2022/02/17 02:28:42;;;;;;;3.95;1.40;;;;;;;16.02;53.69;99103.53;5013465;28;20117;-74
2022/02/17 02:31:09;;;;;;;5.38;1.50;;;;;;;15.99;53.52;99114.81;5014271;28;20132;-73
2022/02/17 02:33:36;;;;;;;6.40;1.75;;;;;;;16.01;53.51;99081.81;5014353;28;20054;-73
2022/02/17 02:36:03;;;;;;;8.48;1.65;;;;;;;15.96;53.34;99110.59;5013454;28;20096;-73
2022/02/17 02:38:49;;;;;;;4.10;1.50;;;;;;;15.91;52.97;99110.25;5014614;28;20038;-74
2022/02/17 02:41:16;;;;;;;5.80;1.52;;;;;;;15.86;53.06;99115.41;5013568;28;20480;-73
2022/02/17 02:43:43;;;;;;;6.93;1.70;;;;;;;15.84;52.68;99113.88;5017031;28;20073;-73
2022/02/17 02:46:10;;;;;;;5.82;1.52;;;;;;;15.80;52.94;99120.75;5010103;28;20056;-73
2022/02/17 02:48:37;;;;;;;7.25;1.58;;;;;;;15.75;52.88;99143.16;5011938;28;20485;-73
2022/02/17 02:51:04;;;;;;;6.90;2.00;;;;;;;15.72;52.63;99131.75;5010938;28;20146;-73
2022/02/17 02:53:30;;;;;;;6.10;1.30;;;;;;;15.67;52.30;99158.75;5011969;28;20129;-73
2022/02/17 02:56:18;;;;;;;5.93;1.80;;;;;;;15.66;52.59;99192.59;5009342;28;20145;-73
2022/02/17 02:58:45;;;;;;;6.18;1.67;;;;;;;15.59;52.80;99217.94;5011518;28;20058;-73
2022/02/17 03:01:11;;;;;;;9.40;2.30;;;;;;;15.57;52.59;99222.72;5000890;28;20081;-73
2022/02/17 03:03:38;;;;;;;5.65;2.28;;;;;;;15.57;52.26;99222.72;5011899;28;20156;-73
2022/02/17 03:06:05;;;;;;;8.43;1.95;;;;;;;15.50;52.67;99229.88;5010616;28;20141;-73
2022/02/17 03:08:31;;;;;;;9.32;2.40;;;;;;;15.48;52.54;99239.31;5011394;28;20456;-73
2022/02/17 03:10:58;;;;;;;7.55;2.03;;;;;;;15.45;52.39;99223.25;4995559;28;20520;-73
2022/02/17 03:13:24;;;;;;;7.93;2.33;;;;;;;15.43;52.25;99237.09;4991535;28;20137;-73
2022/02/17 03:15:51;;;;;;;6.53;2.05;;;;;;;15.39;52.29;99254.88;4988161;28;20547;-74
2022/02/17 03:18:17;;;;;;;6.35;2.00;;;;;;;15.37;51.96;99242.41;4991306;28;20096;-73
2022/02/17 03:20:44;;;;;;;8.52;2.55;;;;;;;15.34;52.20;99267.34;4990288;28;20509;-73
2022/02/17 03:23:11;;;;;;;6.63;1.67;;;;;;;15.32;52.14;99253.00;4984780;28;20130;-74
2022/02/17 03:25:37;;;;;;;9.20;1.95;;;;;;;15.29;52.10;99270.59;4986458;28;20129;-73
2022/02/17 03:28:04;;;;;;;9.23;2.75;;;;;;;15.29;52.08;99256.06;4983413;28;20129;-73
2022/02/17 03:30:31;;;;;;;7.15;2.17;;;;;;;15.27;51.84;99293.66;4989341;28;20104;-73
2022/02/17 03:32:57;;;;;;;6.60;2.20;;;;;;;15.22;52.04;99278.63;4991806;28;20141;-73
2022/02/17 03:35:24;;;;;;;7.05;2.13;;;;;;;15.22;51.82;99280.53;4989542;28;20573;-73
2022/02/17 03:37:50;;;;;;;8.95;2.35;;;;;;;15.21;51.99;99304.28;4991756;28;20046;-73
2022/02/17 03:40:17;;;;;;;7.78;2.00;;;;;;;15.20;51.44;99315.38;4999366;28;20323;-73
2022/02/17 03:42:44;;;;;;;10.45;2.83;;;;;;;15.18;51.50;99309.22;5011492;28;20081;-73
2022/02/17 03:45:11;;;;;;;8.40;2.80;;;;;;;15.17;51.38;99304.75;4998083;28;20464;-73
2022/02/17 03:47:38;;;;;;;9.43;2.47;;;;;;;15.15;51.02;99321.31;4991081;28;20062;-73
2022/02/17 03:50:06;;;;;;;9.60;2.60;;;;;;;15.15;51.08;99353.31;4992780;28;20142;-73
2022/02/17 03:52:33;;;;;;;7.75;2.33;;;;;;;15.15;51.02;99336.91;5010115;28;20081;-73
2022/02/17 03:55:00;;;;;;;6.20;2.03;;;;;;;15.13;50.92;99358.06;5007205;28;20657;-74
2022/02/17 03:57:26;;;;;;;6.82;2.13;;;;;;;15.13;51.00;99352.59;5008968;28;20046;-73
2022/02/17 03:59:55;;;;;;;8.65;2.10;;;;;;;15.13;50.57;99347.16;5009737;28;20084;-74
2022/02/17 04:02:21;;;;;;;8.75;2.42;;;;;;;15.13;50.71;99360.81;5010611;28;20046;-74
2022/02/17 04:04:49;;;;;;;10.25;2.60;;;;;;;15.13;50.30;99339.81;5008905;28;20493;-74
2022/02/17 04:07:15;;;;;;;8.55;2.15;;;;;;;15.14;49.45;99295.03;5006628;28;20053;-74
2022/02/17 04:09:43;;;;;;;9.07;2.38;;;;;;;15.12;49.43;99342.69;5003750;28;20053;-74
2022/02/17 04:12:09;;;;;;;7.97;1.90;;;;;;;15.09;49.34;99341.16;5010467;28;20493;-74
2022/02/17 04:14:36;;;;;;;7.40;1.92;;;;;;;15.09;48.87;99351.22;5009132;28;20054;-74
2022/02/17 04:17:02;;;;;;;5.20;1.90;;;;;;;15.06;49.52;99344.22;5005425;28;20151;-74
2022/02/17 04:19:31;;;;;;;7.40;2.28;;;;;;;15.05;49.03;99331.59;5009676;28;20061;-73
2022/02/17 04:21:57;;;;;;;8.25;2.67;;;;;;;15.04;49.05;99349.00;5017132;28;20046;-74
2022/02/17 04:24:24;;;;;;;6.80;2.50;;;;;;;15.05;48.77;99363.53;5006150;28;20490;-73
2022/02/17 04:26:50;;;;;;;9.88;2.35;;;;;;;15.03;48.69;99374.63;5005997;28;20073;-74
2022/02/17 04:29:17;;;;;;;9.20;2.30;;;;;;;15.02;48.75;99405.72;5009067;28;20129;-75
2022/02/17 04:31:43;;;;;;;11.15;2.70;;;;;;;15.03;48.50;99395.63;5009633;28;20085;-74
2022/02/17 04:34:10;;;;;;;8.00;2.47;;;;;;;15.06;47.96;99392.56;5008958;28;20046;-74
2022/02/17 04:36:37;;;;;;;7.05;2.33;;;;;;;15.02;48.32;99421.25;5009209;28;20092;-74
2022/02/17 04:39:03;;;;;;;10.63;2.85;;;;;;;15.00;48.18;99407.75;5003361;28;20148;-74
2022/02/17 04:44:15;;;;;;;7.88;2.80;;;;;;;14.98;48.26;99411.69;5008899;28;20085;-74
2022/02/17 04:46:42;;;;;;;10.23;2.47;;;;;;;14.98;48.24;99431.69;5007717;28;20092;-74
2022/02/17 04:49:09;;;;;;;9.45;2.05;;;;;;;14.98;48.10;99414.41;5008558;28;20485;-74
2022/02/17 04:51:36;;;;;;;9.10;2.38;;;;;;;14.97;48.45;99445.50;5008726;28;20046;-74
2022/02/17 04:54:03;;;;;;;13.43;2.47;;;;;;;14.99;48.21;99459.88;5009354;28;20053;-74
2022/02/17 04:56:31;;;;;;;11.18;2.75;;;;;;;14.98;48.65;99467.22;5000354;28;20136;-73
2022/02/17 04:58:57;;;;;;;9.25;2.42;;;;;;;15.00;48.51;99461.53;5009609;28;20045;-74
2022/02/17 05:01:24;;;;;;;9.65;2.25;;;;;;;15.03;47.80;99480.38;5002746;28;20457;-74
2022/02/17 05:03:50;;;;;;;8.93;2.80;;;;;;;15.02;47.74;99468.56;5009200;28;20050;-74
2022/02/17 05:06:17;;;;;;;10.85;3.10;;;;;;;15.00;47.88;99459.66;4996415;28;20058;-74
2022/02/17 05:08:44;;;;;;;9.57;3.30;;;;;;;15.00;47.50;99467.00;4991599;28;20448;-74
2022/02/17 05:11:10;;;;;;;8.65;2.88;;;;;;;14.98;47.59;99480.00;5007259;28;20141;-74
2022/02/17 05:13:37;;;;;;;9.60;2.50;;;;;;;14.98;47.77;99494.53;5009950;28;20141;-74
2022/02/17 05:16:05;;;;;;;11.30;2.78;;;;;;;14.99;47.76;99496.22;4990786;28;20042;-74
2022/02/17 05:18:33;;;;;;;9.27;2.33;;;;;;;14.98;47.51;99482.75;4990149;28;20085;-74
2022/02/17 05:20:59;;;;;;;9.82;2.42;;;;;;;14.97;47.42;99501.03;4988558;28;20137;-74
2022/02/17 05:23:26;;;;;;;9.63;2.65;;;;;;;15.00;46.97;99500.66;4989918;28;20050;-74
2022/02/17 05:25:53;;;;;;;7.45;2.50;;;;;;;14.97;47.52;99487.34;4987401;28;20082;-74
2022/02/17 05:28:19;;;;;;;15.23;3.10;;;;;;;14.98;47.35;99493.69;4981249;28;20055;-74
2022/02/17 05:30:47;;;;;;;8.25;2.50;;;;;;;14.96;47.19;99509.38;4997448;28;20325;-74
2022/02/17 05:33:15;;;;;;;9.82;2.17;;;;;;;14.94;47.03;99504.06;5008561;28;20115;-74
2022/02/17 05:35:42;;;;;;;7.05;2.30;;;;;;;14.92;47.54;99497.91;5007956;28;20096;-74
2022/02/17 05:38:09;;;;;;;9.88;2.65;;;;;;;14.93;47.28;99512.41;5016556;28;20042;-74
2022/02/17 05:40:36;;;;;;;11.13;2.70;;;;;;;14.91;46.84;99485.25;5006374;28;20144;-74
2022/02/17 05:43:04;;;;;;;11.80;2.67;;;;;;;14.90;47.14;99527.28;5009676;28;20094;-74
2022/02/17 05:45:30;;;;;;;10.15;3.10;;;;;;;14.94;46.24;99505.94;5000853;28;20054;-74
2022/02/17 05:47:57;;;;;;;9.65;2.90;;;;;;;14.87;46.44;99529.47;5009104;28;20452;-74
2022/02/17 05:50:25;;;;;;;11.55;2.47;;;;;;;14.87;46.49;99510.34;5008425;28;20088;-74
2022/02/17 05:52:51;;;;;;;11.77;2.70;;;;;;;14.82;46.80;99549.94;5009256;28;20076;-74
2022/02/17 05:55:19;;;;;;;9.20;2.70;;;;;;;14.79;46.59;99549.41;5006776;28;20050;-74
2022/02/17 05:57:48;;;;;;;12.85;2.63;;;;;;;14.78;46.69;99566.81;5008728;28;20050;-74
2022/02/17 06:00:15;;;;;;;9.88;2.45;;;;;;;14.76;46.90;99566.97;5006550;28;20058;-74
2022/02/17 06:02:42;;;;;;;13.30;3.33;;;;;;;14.79;46.59;99563.94;5006513;28;20080;-74
2022/02/17 06:05:10;;;;;;;8.35;3.00;;;;;;;14.78;46.66;99584.06;5006574;28;20053;-74
2022/02/17 06:07:38;;;;;;;9.52;2.60;;;;;;;14.77;46.42;99586.97;5009039;28;20089;-74
2022/02/17 06:10:06;;;;;;;11.48;3.35;;;;;;;14.78;46.34;99602.34;5007789;28;20112;-74
2022/02/17 06:12:39;;;;;;;11.18;3.22;;;;;;;14.79;45.67;99602.19;5005146;28;20050;-74
2022/02/17 06:15:06;;;;;;;7.68;2.63;;;;;;;14.76;45.92;99612.56;5020234;28;20137;-74
2022/02/17 06:17:33;;;;;;;7.53;2.22;;;;;;;14.76;46.11;99605.22;5009988;28;20081;-74
2022/02/17 06:19:59;;;;;;;9.98;2.72;;;;;;;14.75;45.60;99592.59;5008465;28;20053;-74
2022/02/17 06:22:26;;;;;;;8.20;2.60;;;;;;;14.75;45.65;99589.84;5011687;28;20131;-74
2022/02/17 06:24:54;;;;;;;8.43;2.55;;;;;;;14.75;45.77;99591.72;5014400;28;20075;-74
2022/02/17 06:27:20;;;;;;;10.63;2.75;;;;;;;14.74;45.41;99609.16;5021028;28;20485;-74
2022/02/17 06:29:48;;;;;;;9.95;2.78;;;;;;;14.73;45.42;99610.19;5015772;28;20064;-74
2022/02/17 06:32:14;;;;;;;8.25;2.33;;;;;;;14.70;45.60;99629.59;5018610;28;20050;-74
2022/02/17 06:34:41;;;;;;;10.13;2.35;;;;;;;14.69;45.03;99631.47;5017978;28;20095;-74
2022/02/17 06:37:08;;;;;;;8.13;2.55;;;;;;;14.67;45.46;99646.31;5030913;28;20455;-74
2022/02/17 06:39:34;;;;;;;9.27;2.78;;;;;;;14.67;44.97;99632.66;5022492;28;20057;-74
2022/02/17 06:42:01;;;;;;;9.85;2.20;;;;;;;14.66;45.12;99648.16;5011596;28;20108;-74
2022/02/17 06:44:27;;;;;;;10.98;2.65;;;;;;;14.65;44.95;99651.94;5009927;28;20487;-74
2022/02/17 06:46:54;;;;;;;13.30;2.80;;;;;;;14.65;44.57;99671.06;5018246;28;20053;-74
2022/02/17 06:49:21;;;;;;;8.70;2.60;;;;;;;14.65;44.63;99676.53;5010299;28;20054;-74
2022/02/17 06:51:47;;;;;;;7.88;2.67;;;;;;;14.63;44.30;99664.03;5014437;28;20132;-74
2022/02/17 06:54:13;;;;;;;9.52;2.35;;;;;;;14.62;44.35;99685.03;5008421;28;20050;-73
2022/02/17 06:56:40;;;;;;;8.48;2.90;;;;;;;14.62;44.27;99693.22;5024759;28;20539;-73
2022/02/17 06:59:09;;;;;;;6.70;1.90;;;;;;;14.64;44.07;99695.81;5009564;28;20268;-74
2022/02/17 07:01:35;;;;;;;8.85;2.97;;;;;;;14.60;44.25;99705.31;5008694;28;20045;-74
2022/02/17 07:04:04;;;;;;;11.65;3.10;;;;;;;14.61;44.19;99710.63;5010602;28;20515;-74
2022/02/17 07:06:30;;;;;;;9.20;2.38;;;;;;;14.62;43.62;99726.00;5015775;28;20111;-76
2022/02/17 07:08:57;;;;;;;8.45;2.30;;;;;;;14.60;43.91;99732.63;5010815;28;20412;-77
2022/02/17 07:11:23;;;;;;;10.40;2.63;;;;;;;14.63;43.43;99726.88;5010280;28;20073;-75
2022/02/17 07:13:50;;;;;;;5.38;2.30;;;;;;;14.61;44.07;99746.16;5008892;28;20184;-74
2022/02/17 07:16:17;;;;;;;10.00;2.50;;;;;;;14.60;43.58;99769.00;5006419;28;20077;-74
2022/02/17 07:18:46;;;;;;;12.48;3.08;;;;;;;14.61;43.30;99773.47;5009736;28;20080;-74
2022/02/17 07:21:13;;;;;;;11.07;2.47;;;;;;;14.61;43.33;99772.59;5009396;28;20133;-74
2022/02/17 07:23:40;;;;;;;7.22;1.90;;;;;;;14.58;43.51;99770.16;5011175;28;20132;-74
2022/02/17 07:26:11;;;;;;;7.93;2.08;;;;;;;14.59;42.93;99782.81;5010124;28;20080;-75
2022/02/17 07:28:38;;;;;;;9.18;2.22;;;;;;;14.55;43.24;99793.19;5011618;28;20178;-75
2022/02/17 07:31:06;;;;;;;9.63;2.22;;;;;;;14.58;43.46;99792.00;5010339;28;20077;-75
2022/02/17 07:33:34;;;;;;;5.97;1.73;;;;;;;14.57;42.95;99793.06;5010924;28;20046;-75
2022/02/17 07:36:01;;;;;;;7.30;2.35;;;;;;;14.58;42.83;99800.22;5008651;28;20050;-74
2022/02/17 07:38:48;;;;;;;6.78;1.95;;;;;;;14.58;42.74;99798.34;5004291;28;20563;-75
2022/02/17 07:41:15;;;;;;;10.02;2.58;;;;;;;14.55;43.02;99815.06;5003780;28;20106;-75
2022/02/17 07:43:42;;;;;;;8.13;2.03;;;;;;;14.55;42.77;99823.25;5003132;28;20050;-75
2022/02/17 07:46:10;;;;;;;7.45;2.70;;;;;;;14.57;42.56;99840.34;5010235;28;20417;-75
2022/02/17 07:48:37;;;;;;;6.53;1.90;;;;;;;14.55;42.86;99825.97;5012189;28;20374;-75
2022/02/17 07:51:05;;;;;;;9.43;2.42;;;;;;;14.56;42.42;99844.09;5011556;28;20460;-75
2022/02/17 07:53:32;;;;;;;6.85;2.47;;;;;;;14.57;43.01;99854.00;5012285;28;20050;-75
2022/02/17 07:55:59;;;;;;;7.53;2.10;;;;;;;14.56;42.76;99835.91;4992636;28;20137;-75
2022/02/17 07:58:26;;;;;;;7.15;1.98;;;;;;;14.56;42.98;99859.63;4992588;28;20116;-75
2022/02/17 08:00:53;;;;;;;11.00;2.00;;;;;;;14.56;43.09;99856.88;4991673;28;20070;-75
2022/02/17 08:03:19;;;;;;;9.63;2.53;;;;;;;14.57;42.73;99847.69;4992389;28;20421;-75
2022/02/17 08:05:46;;;;;;;9.50;2.60;;;;;;;14.59;42.67;99849.22;4990586;28;20140;-75
2022/02/17 08:08:13;;;;;;;11.60;3.55;;;;;;;14.57;42.34;99891.41;4991949;28;20173;-75
2022/02/17 08:10:42;;;;;;;7.95;2.17;;;;;;;14.56;42.58;99871.41;4990920;28;20058;-75
2022/02/17 08:13:09;;;;;;;8.63;2.00;;;;;;;14.56;42.65;99886.94;4992019;28;20363;-75
2022/02/17 08:15:35;;;;;;;9.77;2.20;;;;;;;14.61;42.68;99879.13;4989313;28;20375;-75
2022/02/17 08:18:02;;;;;;;8.05;2.10;;;;;;;14.59;42.82;99882.00;4991385;28;20082;-75
2022/02/17 08:20:29;;;;;;;7.50;2.30;;;;;;;14.61;42.52;99884.59;5001394;28;20557;-75
2022/02/17 08:22:56;;;;;;;10.18;2.55;;;;;;;14.63;41.89;99888.91;5011685;28;20133;-75
2022/02/17 08:25:24;;;;;;;7.97;2.17;;;;;;;14.62;42.09;99887.19;5009179;28;20046;-74
2022/02/17 08:27:51;;;;;;;8.93;2.05;;;;;;;14.61;42.52;99904.59;5011582;28;20054;-75
2022/02/17 08:30:18;;;;;;;9.35;2.38;;;;;;;14.61;42.44;99910.03;5010402;28;20049;-75
2022/02/17 08:32:45;;;;;;;9.48;2.42;;;;;;;14.62;42.08;99914.50;5002742;28;20363;-75
2022/02/17 08:35:13;;;;;;;8.45;2.88;;;;;;;14.60;42.33;99907.47;5009445;28;20089;-75
2022/02/17 08:37:41;;;;;;;6.32;1.80;;;;;;;14.62;42.46;99925.44;5010034;28;20104;-75
2022/02/17 08:40:09;;;;;;;8.30;2.60;;;;;;;14.66;42.63;99931.47;5009333;28;20088;-75
2022/02/17 08:42:36;;;;;;;10.18;3.13;;;;;;;14.69;42.00;99925.69;5011401;28;20057;-75
2022/02/17 08:45:04;;;;;;;8.63;2.13;;;;;;;14.70;42.23;99924.69;5009108;28;20073;-75
2022/02/17 08:47:30;;;;;;;7.68;2.35;;;;;;;14.71;42.10;99943.66;5010861;28;20081;-75
2022/02/17 08:49:57;;;;;;;7.25;2.13;;;;;;;14.72;42.31;99949.97;5008302;28;20057;-75
2022/02/17 08:52:26;;;;;;;10.50;2.42;;;;;;;14.74;41.86;99937.03;5009622;28;20060;-75
2022/02/17 08:54:53;;;;;;;8.93;1.88;;;;;;;14.74;42.02;99957.00;5007180;28;20069;-75
2022/02/17 08:57:19;;;;;;;8.35;1.85;;;;;;;14.78;41.81;99952.97;5004304;28;20141;-75
2022/02/17 08:59:46;;;;;;;8.02;2.05;;;;;;;14.79;41.28;99967.50;5009785;28;20555;-75
2022/02/17 09:02:13;;;;;;;6.63;2.00;;;;;;;14.81;41.58;99979.13;5008290;28;20192;-75
2022/02/17 09:04:39;;;;;;;8.57;2.50;;;;;;;14.82;40.90;99962.56;5005398;28;20597;-75
2022/02/17 09:07:06;;;;;;;7.10;2.10;;;;;;;14.82;40.44;99972.66;5006841;28;20058;-74
2022/02/17 09:09:32;;;;;;;7.22;1.80;;;;;;;14.85;40.61;99969.59;5005428;28;20521;-74
2022/02/17 09:11:59;;;;;;;6.55;1.75;;;;;;;14.82;40.67;99986.31;5005955;28;20056;-76
2022/02/17 09:14:26;;;;;;;10.60;2.50;;;;;;;14.84;40.14;100014.34;5005413;28;20089;-75
2022/02/17 09:16:53;;;;;;;8.40;1.90;;;;;;;14.81;40.66;100010.06;5006801;28;20054;-75
2022/02/17 09:19:22;;;;;;;5.35;1.65;;;;;;;14.83;40.34;100008.00;5007193;28;20381;-75
2022/02/17 09:21:48;;;;;;;6.90;1.90;;;;;;;14.83;40.24;100016.22;5008806;28;20184;-75
2022/02/17 09:24:15;;;;;;;6.95;1.83;;;;;;;14.84;40.42;100017.94;5002028;28;20115;-75
2022/02/17 09:26:45;;;;;;;10.52;1.75;;;;;;;14.85;40.23;100014.19;5009460;28;20088;-75
2022/02/17 09:29:13;;;;;;;7.78;1.90;;;;;;;14.87;40.10;100018.66;5009516;28;20050;-75
2022/02/17 09:31:56;;;;;;;5.78;2.03;;;;;;;14.88;40.24;100047.72;5005739;28;20053;-75
2022/02/17 09:34:26;;;;;;;5.65;1.60;;;;;;;14.92;39.77;100033.59;5007876;28;20046;-75
2022/02/17 09:36:52;;;;;;;5.07;1.67;;;;;;;14.94;39.82;100041.63;5005352;28;20084;-75
2022/02/17 09:39:21;;;;;;;7.07;1.92;;;;;;;14.95;39.71;100044.22;5006259;28;20410;-75
2022/02/17 09:41:49;;;;;;;5.57;2.00;;;;;;;14.95;39.82;100055.16;5001127;28;20129;-75
2022/02/17 09:44:19;;;;;;;6.18;1.70;;;;;;;14.99;39.38;100061.19;5006516;28;20119;-75
2022/02/17 09:46:47;;;;;;;8.52;1.95;;;;;;;14.98;39.92;100076.75;5006745;28;20137;-76
2022/02/17 09:49:18;;;;;;;6.90;1.85;;;;;;;15.00;39.25;100065.63;5007333;28;20485;-75
2022/02/17 09:51:46;;;;;;;6.30;2.35;;;;;;;15.00;40.17;100090.22;5007341;28;20049;-75
2022/02/17 09:54:13;;;;;;;5.85;1.67;;;;;;;15.01;40.14;100087.34;5007763;28;20046;-76
2022/02/17 09:56:44;;;;;;;7.07;2.20;;;;;;;15.02;39.93;100105.47;5009717;28;20042;-76
2022/02/17 09:59:13;;;;;;;7.35;1.73;;;;;;;15.03;39.43;100098.16;5009293;28;20069;-75
2022/02/17 10:01:53;;;;;;;5.18;1.70;;;;;;;15.09;38.88;100097.53;4991114;28;20494;-75
2022/02/17 10:04:21;;;;;;;6.32;1.90;;;;;;;15.06;39.34;100098.72;4991575;28;20078;-75
2022/02/17 10:07:00;;;;;;;6.75;1.60;;;;;;;15.10;38.22;100116.53;4992022;28;20054;-75
2022/02/17 10:09:57;;;;;;;5.63;1.65;;;;;;;15.05;38.10;100110.66;4998088;28;20054;-75
2022/02/17 10:12:24;;;;;;;8.07;1.80;;;;;;;15.04;38.54;100121.75;5003807;28;20041;-75
2022/02/17 10:14:58;;;;;;;5.05;1.70;;;;;;;15.06;37.54;100115.13;5004315;28;20050;-75
2022/02/17 10:17:25;;;;;;;5.82;1.30;;;;;;;15.03;38.56;100140.00;5008378;28;20046;-76
2022/02/17 10:19:55;;;;;;;7.70;2.20;;;;;;;15.07;37.76;100133.22;5010928;28;20097;-75
2022/02/17 10:22:29;;;;;;;5.47;1.85;;;;;;;15.07;38.50;100141.44;5010769;28;20053;-75
2022/02/17 10:24:57;;;;;;;5.85;1.80;;;;;;;15.07;38.35;100157.84;5002425;28;20069;-75
2022/02/17 10:27:29;;;;;;;8.52;2.08;;;;;;;15.11;37.98;100155.66;5011757;28;20050;-75
2022/02/17 10:30:07;;;;;;;6.28;2.20;;;;;;;15.13;37.86;100140.84;5010911;28;20069;-75
2022/02/17 10:32:35;;;;;;;5.22;1.65;;;;;;;15.16;38.56;100158.81;5011510;28;20077;-75
2022/02/17 10:35:13;;;;;;;5.25;1.60;;;;;;;15.20;37.26;100179.41;5012617;28;20080;-75
2022/02/17 10:37:50;;;;;;;7.35;1.65;;;;;;;15.23;37.10;100169.00;5008912;28;20057;-75
2022/02/17 10:40:19;;;;;;;5.80;1.63;;;;;;;15.23;37.46;100179.94;4999360;28;20045;-75
2022/02/17 10:43:12;;;;;;;4.88;1.40;;;;;;;15.27;37.57;100179.66;5015934;28;20049;-76
2022/02/17 10:45:45;;;;;;;4.88;1.58;;;;;;;15.27;37.28;100182.38;5012210;28;20107;-76
2022/02/17 10:48:24;;;;;;;5.25;1.65;;;;;;;15.32;37.40;100194.59;5011727;28;20057;-76
2022/02/17 10:51:08;;;;;;;5.57;1.67;;;;;;;15.36;37.17;100206.97;4998011;28;20050;-75
2022/02/17 10:53:45;;;;;;;5.47;1.45;;;;;;;15.42;37.43;100189.09;4999493;28;20057;-76
2022/02/17 10:56:15;;;;;;;4.95;1.33;;;;;;;15.44;37.46;100196.16;4983703;28;20046;-76
2022/02/17 10:58:48;;;;;;;4.55;1.58;;;;;;;15.48;37.07;100175.69;4984008;28;20489;-75
2022/02/17 11:01:16;;;;;;;;;;;;;;;15.28;38.84;100186.84;5003206;28;20520;-76
2022/02/17 11:03:43;;;;;;;4.10;1.40;;;;;;;15.49;37.24;100209.38;5013053;28;20455;-76
2022/02/17 11:06:12;;;;;;;5.15;1.58;;;;;;;15.59;37.30;100210.25;4991920;28;20054;-76
2022/02/17 11:08:40;;;;;;;5.20;1.50;;;;;;;15.64;36.99;100198.84;4983540;28;20054;-75
2022/02/17 11:11:13;;;;;;;4.97;1.23;;;;;;;15.67;36.84;100193.06;4989307;28;20086;-76
2022/02/17 11:13:47;;;;;;;3.88;1.10;;;;;;;15.72;36.15;100210.78;4990716;28;20058;-75
2022/02/17 11:16:19;;;;;;;5.85;1.77;;;;;;;15.76;35.96;100206.69;4988204;28;20054;-75
2022/02/17 11:18:47;;;;;;;5.35;1.30;;;;;;;15.79;36.01;100217.34;4988946;28;20480;-75
2022/02/17 11:21:16;;;;;;;3.72;1.38;;;;;;;15.83;34.32;100206.94;4979780;28;20066;-74
2022/02/17 11:23:46;;;;;;;4.43;1.30;;;;;;;15.84;35.52;100203.22;4984186;28;20156;-76
2022/02/17 11:26:26;;;;;;;3.80;1.20;;;;;;;15.87;35.67;100231.16;4985422;28;20042;-74
2022/02/17 11:29:23;;;;;;;4.00;1.17;;;;;;;15.85;35.72;100224.09;4990262;28;20058;-74
2022/02/17 11:31:58;;;;;;;4.18;0.95;;;;;;;15.88;35.20;100237.50;4980708;28;20042;-74
2022/02/17 11:34:37;;;;;;;4.82;1.33;;;;;;;15.94;35.11;100232.25;4990364;28;20448;-74
2022/02/17 11:37:22;;;;;;;3.22;0.90;;;;;;;15.96;35.49;100230.25;5008836;28;20042;-74
2022/02/17 11:40:14;;;;;;;3.67;1.33;;;;;;;15.99;35.39;100243.59;5008211;28;20497;-74